To NAV CANADA Home Page Login to a new session Search on AWWS site Disclaimer Vers la page française équivalente Tips FAQ What's new on the site To the Forecasts and Observations / NOTAM section To "File a Flight Plan" website Publications and other links Update of the User's profile FIC Telephone Numbers My Weather Data Folder Route Weather Data Regional Weather Data Local Weather Data To the Forecasts and Observations / NOTAM section
Request Generated 01/21/2021 at 02:39:04 UTC . Weather information available at that time is displayed.


Go to a specific product

Save this request

NOTAM

NOTAM


SIGMET
To the Product Selector

SIGMETS GFACN32

WSCN32 CWEG 202257
SIGMET V4 VALID 202255/210035 CWEG-
CZWG WINNIPEG FIR CNCL SIGMET V3 202035/210035
RMK GFACN32
END/WSCN23/CWAO



AIRMET
To the Product Selector

AIRMETS GFACN32

GFACN32 - No AIRMET bulletins in effect



PIREP
To the Product Selector

FIR_WINNIPEG (WG)


UACN10 CYQK 210025
WG
UA /OV CYRL 080002 /TM 0021 /FLDURD /TP SW4 /SK 022OVC050 /TB LGT
/IC MDT MXD 022-050


METAR/TAF
To the Product Selector

REGINA INTL/SK    

METAR CYQR 210200Z 29022G28KT 15SM BKN043 OVC120 M02/M06 A2960 RMK SC7AC1 SLP055=
METAR CYQR 210100Z 29021G29KT 15SM DRSN BKN060 BKN120 M02/M05 A2958 RMK SC6AC1 SLP048=
METAR CYQR 210000Z 28018G23KT 15SM FEW045 FEW087 SCT210 M02/M06 A2958 RMK SC1AC1CI4 SC TR AC TR SLP049=

TAF CYQR 202338Z 2100/2124 28020G30KT P6SM BKN040
FM210300 30020G30KT P6SM BKN030 TEMPO 2103/2110 2SM -SHSN BKN020
BECMG 2107/2109 33018G28KT
FM211000 33015G25KT P6SM BKN040 TEMPO 2110/2113 BKN020
FM211300 33015G25KT P6SM BKN015 TEMPO 2113/2124 OVC008
RMK NXT FCST BY 210600Z=

MOOSE JAW/AIR VICE MARSHAL C.M. MCEWEN/SK    

CYMJ - METAR not available

TAF AMD CYMJ 202025Z 2019/2106 FCST CNCLD DUE END OF FLYING PROGRAM
RMK NXT FCST WILL BE ISSUED AT 211115Z=


RADAR PCPN RATE
To the Product Selector
Pacific Canada      Western Canada     

SATELLITE VISIBLE
To the Product Selector
West Canada      

SATELLITE INFRARED
To the Product Selector
West Canada     

GRAPHICAL FA CLOUDS & WEATHER FORECASTS
To the Product Selector
Graphical FA gfacn32      

GRAPHICAL FA ICING, TURBULENCE & FREEZING LEVEL FORECASTS
To the Product Selector
Graphical FA gfacn32      

FDTEXT Low Level FD. Temperatures are not forecast for the 3,000-foot level.
To the Product Selector
STN YQR - REGINA. SASK for use 3000 6000 9000 12000 18000
FDCN01 CWAO FCST BASED ON 201200 DATA VALID 201800 17-21 3249-10 3149-14 3240-20 3038-35
FDCN02 CWAO FCST BASED ON 201200 DATA VALID 210000 21-06 3147-10 3042-16 3149-21 3159-34
FDCN03 CWAO FCST BASED ON 201200 DATA VALID 211200 06-17 3236-15 3232-17 3233-21 3242-30



Your time UTC time
Weather data provided by Environment Canada and NAV CANADA